createdAt,value
2023-03-30T00:01:14.906Z,8.80
2023-03-30T00:03:44.859Z,8.80
2023-03-30T00:06:21.054Z,8.70
2023-03-30T00:08:58.387Z,8.60
2023-03-30T00:11:27.490Z,8.50
2023-03-30T00:13:55.051Z,8.40
2023-03-30T00:16:22.970Z,8.30
2023-03-30T00:18:50.690Z,8.20
2023-03-30T00:21:20.674Z,8.20
2023-03-30T00:23:48.259Z,8.10
2023-03-30T00:26:15.864Z,8.10
2023-03-30T00:28:43.029Z,8.10
2023-03-30T00:31:11.467Z,8.10
2023-03-30T00:33:45.631Z,8.10
2023-03-30T00:36:14.034Z,8.10
2023-03-30T00:38:41.057Z,8.00
2023-03-30T00:41:09.220Z,8.00
2023-03-30T00:43:58.576Z,8.00
2023-03-30T00:46:25.999Z,8.00
2023-03-30T00:48:57.852Z,7.90
2023-03-30T00:51:28.021Z,7.90
2023-03-30T00:54:05.462Z,7.80
2023-03-30T00:56:32.793Z,7.80
2023-03-30T00:59:02.664Z,7.80
2023-03-30T01:01:34.558Z,7.80
2023-03-30T01:04:03.817Z,7.90
2023-03-30T01:06:32.482Z,7.70
2023-03-30T01:08:59.813Z,7.70
2023-03-30T01:11:27.512Z,7.70
2023-03-30T01:14:06.031Z,7.60
2023-03-30T01:16:35.653Z,7.60
2023-03-30T01:19:08.226Z,7.60
2023-03-30T01:21:50.057Z,7.60
2023-03-30T01:25:03.368Z,7.60
2023-03-30T01:28:11.916Z,7.50
2023-03-30T01:31:18.759Z,7.40
2023-03-30T01:34:13.747Z,7.30
2023-03-30T01:37:36.178Z,7.30
2023-03-30T01:40:25.123Z,7.20
2023-03-30T01:43:19.517Z,7.30
2023-03-30T01:45:57.044Z,7.30
2023-03-30T01:48:53.818Z,7.40
2023-03-30T01:51:31.654Z,7.50
2023-03-30T01:54:08.035Z,7.50
2023-03-30T01:57:06.877Z,7.60
2023-03-30T02:00:11.009Z,7.70
2023-03-30T02:02:40.880Z,7.70
2023-03-30T02:05:10.330Z,7.80
2023-03-30T02:07:39.847Z,8.10
2023-03-30T02:10:10.339Z,8.00
2023-03-30T02:12:38.868Z,8.10
2023-03-30T02:15:11.452Z,8.20
2023-03-30T02:17:38.490Z,8.30
2023-03-30T02:20:10.764Z,8.40
2023-03-30T02:22:39.126Z,8.60
2023-03-30T02:25:06.684Z,8.70
2023-03-30T02:27:35.067Z,8.90
2023-03-30T02:30:02.293Z,9.10
2023-03-30T02:32:41.200Z,9.30
2023-03-30T02:35:34.974Z,9.50
2023-03-30T02:38:14.941Z,9.70
2023-03-30T02:41:00.165Z,9.90
2023-03-30T02:44:23.904Z,10.10
2023-03-30T02:47:31.389Z,10.30
2023-03-30T02:50:21.248Z,10.40
2023-03-30T02:53:14.753Z,10.50
2023-03-30T02:56:11.448Z,10.50
2023-03-30T02:59:10.384Z,10.50
2023-03-30T03:01:45.802Z,10.50
2023-03-30T03:04:15.551Z,10.50
2023-03-30T03:06:43.642Z,10.40
2023-03-30T03:09:10.591Z,10.50
2023-03-30T03:11:37.745Z,10.50
2023-03-30T03:14:04.712Z,10.60
2023-03-30T03:16:31.757Z,10.60
2023-03-30T03:18:58.704Z,10.70
2023-03-30T03:21:26.054Z,10.70
2023-03-30T03:23:52.940Z,10.80
2023-03-30T03:26:20.090Z,11.00
2023-03-30T03:28:46.979Z,10.90
2023-03-30T03:31:14.221Z,10.80
2023-03-30T03:33:41.256Z,10.70
2023-03-30T03:36:08.877Z,10.80
2023-03-30T03:38:36.376Z,10.80
2023-03-30T03:41:04.397Z,10.80
2023-03-30T03:43:31.583Z,10.80
2023-03-30T03:45:58.597Z,10.80
2023-03-30T03:48:25.929Z,10.90
2023-03-30T03:50:58.838Z,10.90
2023-03-30T03:53:28.189Z,10.90
2023-03-30T03:55:55.951Z,10.90
2023-03-30T03:58:24.689Z,10.80
2023-03-30T04:00:52.112Z,10.80
2023-03-30T04:03:19.126Z,10.60
2023-03-30T04:05:46.139Z,10.50
2023-03-30T04:08:13.021Z,10.40
2023-03-30T04:10:41.744Z,10.30
2023-03-30T04:13:08.680Z,10.30
2023-03-30T04:15:36.301Z,10.40
2023-03-30T04:18:05.324Z,10.40
2023-03-30T04:20:32.538Z,10.50
2023-03-30T04:23:01.662Z,10.60
2023-03-30T04:25:29.279Z,10.60
2023-03-30T04:27:57.284Z,10.60
2023-03-30T04:30:24.969Z,10.60
2023-03-30T04:33:02.925Z,10.70
2023-03-30T04:35:34.618Z,10.70
2023-03-30T04:38:02.507Z,10.70
2023-03-30T04:40:30.473Z,10.70
2023-03-30T04:43:02.764Z,10.80
2023-03-30T04:45:32.846Z,10.80
2023-03-30T04:47:59.964Z,10.80
2023-03-30T04:50:26.887Z,10.90
2023-03-30T04:52:56.547Z,10.90
2023-03-30T04:55:24.072Z,10.90
2023-03-30T04:57:51.293Z,10.90
2023-03-30T05:00:19.129Z,11.00
2023-03-30T05:02:46.123Z,11.00
2023-03-30T05:05:13.102Z,11.00
2023-03-30T05:07:39.968Z,11.10
2023-03-30T05:10:07.964Z,11.10
2023-03-30T05:12:34.984Z,11.10
2023-03-30T05:15:02.007Z,11.20
2023-03-30T05:17:28.938Z,11.30
2023-03-30T05:19:56.451Z,11.30
2023-03-30T05:22:23.411Z,11.40
2023-03-30T05:24:52.153Z,11.40
2023-03-30T05:27:19.790Z,11.50
2023-03-30T05:29:46.806Z,11.50
2023-03-30T05:32:13.820Z,11.50
2023-03-30T05:34:40.789Z,11.50
2023-03-30T05:37:07.806Z,11.60
2023-03-30T05:39:34.755Z,11.50
2023-03-30T05:42:01.678Z,11.60
2023-03-30T05:44:28.797Z,11.60
2023-03-30T05:46:55.965Z,11.60
2023-03-30T05:49:23.486Z,11.60
2023-03-30T05:51:51.124Z,11.60
2023-03-30T05:54:18.292Z,11.70
2023-03-30T05:56:45.411Z,11.70
2023-03-30T05:59:13.072Z,11.70
2023-03-30T06:01:40.191Z,11.70
2023-03-30T06:04:08.063Z,11.70
2023-03-30T06:06:35.105Z,11.70
2023-03-30T06:09:02.936Z,11.70
2023-03-30T06:11:30.595Z,11.80
2023-03-30T06:13:58.244Z,11.70
2023-03-30T06:16:25.702Z,11.70
2023-03-30T06:18:52.631Z,11.80
2023-03-30T06:21:19.875Z,11.80
2023-03-30T06:23:47.307Z,11.80
2023-03-30T06:26:14.710Z,11.80
2023-03-30T06:28:41.713Z,11.80
2023-03-30T06:31:12.907Z,11.90
2023-03-30T06:33:41.783Z,11.90
2023-03-30T06:36:14.320Z,11.90
2023-03-30T06:38:43.694Z,11.90
2023-03-30T06:41:12.734Z,11.90
2023-03-30T06:43:40.314Z,11.90
2023-03-30T06:46:08.420Z,11.90
2023-03-30T06:48:35.875Z,12.00
2023-03-30T06:51:04.457Z,12.00
2023-03-30T06:53:31.654Z,12.00
2023-03-30T06:55:59.301Z,12.00
2023-03-30T06:58:28.376Z,12.00
2023-03-30T07:00:55.827Z,12.10
2023-03-30T07:03:23.253Z,12.10
2023-03-30T07:05:51.856Z,12.10
2023-03-30T07:08:20.225Z,12.20
2023-03-30T07:10:48.905Z,12.20
2023-03-30T07:13:17.032Z,12.10
2023-03-30T07:15:44.942Z,12.30
2023-03-30T07:18:12.108Z,12.30
2023-03-30T07:20:39.275Z,12.40
2023-03-30T07:23:06.470Z,12.50
2023-03-30T07:25:33.417Z,12.70
2023-03-30T07:28:02.154Z,12.90
2023-03-30T07:30:29.571Z,13.70
2023-03-30T07:32:58.387Z,15.00
2023-03-30T07:35:26.177Z,15.80
2023-03-30T07:38:00.437Z,15.90
2023-03-30T07:40:30.290Z,15.80
2023-03-30T07:42:57.393Z,15.50
2023-03-30T07:45:24.277Z,15.30
2023-03-30T07:47:51.391Z,15.20
2023-03-30T07:50:18.418Z,15.40
2023-03-30T07:52:45.495Z,15.70
2023-03-30T07:55:13.076Z,16.10
2023-03-30T07:57:40.079Z,16.50
2023-03-30T08:00:10.394Z,16.70
2023-03-30T08:02:37.994Z,17.10
2023-03-30T08:05:05.643Z,17.60
2023-03-30T08:07:34.326Z,18.30
2023-03-30T08:10:01.482Z,18.70
2023-03-30T08:12:28.439Z,19.50
2023-03-30T08:14:55.963Z,20.30
2023-03-30T08:17:23.157Z,21.10
2023-03-30T08:19:50.187Z,21.90
2023-03-30T08:22:17.146Z,22.70
2023-03-30T08:24:44.118Z,23.00
2023-03-30T08:27:11.286Z,22.60
2023-03-30T08:29:38.447Z,21.70
2023-03-30T08:32:05.549Z,20.70
2023-03-30T08:34:34.275Z,20.10
2023-03-30T08:37:02.442Z,19.70
2023-03-30T08:39:32.254Z,19.50
2023-03-30T08:42:40.974Z,19.10
2023-03-30T08:45:11.936Z,18.50
2023-03-30T08:47:45.411Z,17.90
2023-03-30T08:50:31.906Z,17.60
2023-03-30T08:52:59.587Z,17.30
2023-03-30T08:55:46.249Z,17.10
2023-03-30T08:58:40.457Z,16.90
2023-03-30T09:01:23.380Z,16.90
2023-03-30T09:04:08.942Z,17.00
2023-03-30T09:07:00.516Z,17.20
2023-03-30T09:09:32.384Z,17.50
2023-03-30T09:12:34.219Z,17.50
2023-03-30T09:15:20.571Z,17.30
2023-03-30T09:17:55.183Z,17.10
2023-03-30T09:20:29.637Z,17.20
2023-03-30T09:23:01.143Z,17.90
2023-03-30T09:25:53.415Z,18.50
2023-03-30T09:28:38.911Z,18.50
2023-03-30T09:31:24.906Z,17.90
2023-03-30T09:34:14.161Z,17.10
2023-03-30T09:37:01.991Z,16.30
2023-03-30T09:39:33.473Z,15.30
2023-03-30T09:42:51.300Z,14.30
2023-03-30T09:45:25.339Z,13.40
2023-03-30T09:47:52.547Z,12.70
2023-03-30T09:50:28.511Z,12.30
2023-03-30T09:53:04.056Z,12.30
2023-03-30T09:55:38.051Z,12.60
2023-03-30T09:58:26.877Z,13.10
2023-03-30T10:01:15.035Z,13.80
2023-03-30T10:03:44.490Z,14.60
2023-03-30T10:06:20.198Z,15.60
2023-03-30T10:08:56.215Z,16.10
2023-03-30T10:11:50.079Z,16.60
2023-03-30T10:14:31.716Z,17.20
2023-03-30T10:17:00.824Z,17.80
2023-03-30T10:19:29.370Z,18.70
2023-03-30T10:21:59.915Z,19.10
2023-03-30T10:24:31.775Z,19.60
2023-03-30T10:27:07.464Z,19.80
2023-03-30T10:29:34.523Z,19.30
2023-03-30T10:32:20.900Z,18.50
2023-03-30T10:34:54.350Z,17.80
2023-03-30T10:37:44.703Z,15.90
2023-03-30T10:40:27.933Z,13.10
2023-03-30T10:42:58.168Z,11.20
2023-03-30T10:45:47.103Z,10.30
2023-03-30T10:48:29.645Z,9.90
2023-03-30T10:51:23.277Z,9.50
2023-03-30T10:54:24.861Z,9.30
2023-03-30T10:57:01.868Z,9.20
2023-03-30T11:00:02.520Z,9.10
2023-03-30T11:02:49.712Z,9.10
2023-03-30T11:05:36.013Z,9.20
2023-03-30T11:08:28.968Z,9.20
2023-03-30T11:11:00.134Z,9.40
2023-03-30T11:13:40.940Z,9.80
2023-03-30T11:16:18.910Z,10.10
2023-03-30T11:19:14.968Z,10.30
2023-03-30T11:22:04.890Z,10.30
2023-03-30T11:24:34.625Z,10.40
2023-03-30T11:27:26.656Z,10.80
2023-03-30T11:30:24.654Z,11.20
2023-03-30T11:33:02.145Z,11.70
2023-03-30T11:35:47.328Z,12.10
2023-03-30T11:38:42.030Z,12.20
2023-03-30T11:41:28.672Z,12.10
2023-03-30T11:43:56.261Z,12.10
2023-03-30T11:46:39.853Z,12.10
2023-03-30T11:49:21.981Z,12.10
2023-03-30T11:52:27.854Z,12.00
2023-03-30T11:55:27.489Z,11.90
2023-03-30T11:58:37.389Z,12.00
2023-03-30T12:02:02.865Z,12.00
2023-03-30T12:04:49.076Z,12.00
2023-03-30T12:07:43.832Z,12.00
2023-03-30T12:10:39.052Z,11.80
2023-03-30T12:13:12.424Z,11.80
2023-03-30T12:15:49.079Z,11.70
2023-03-30T12:18:37.376Z,11.80
2023-03-30T12:21:24.430Z,11.70
2023-03-30T12:24:32.310Z,11.60
2023-03-30T12:27:05.783Z,11.40
2023-03-30T12:32:30.060Z,11.60
2023-03-30T12:35:00.104Z,11.70
2023-03-30T12:37:33.549Z,11.90
2023-03-30T12:40:26.834Z,12.00
2023-03-30T12:43:20.747Z,12.30
2023-03-30T12:46:26.147Z,12.50
2023-03-30T12:49:23.277Z,12.60
2023-03-30T12:52:02.558Z,12.60
2023-03-30T12:54:56.462Z,12.80
2023-03-30T12:58:26.834Z,13.00
2023-03-30T13:01:32.110Z,12.90
2023-03-30T13:04:10.777Z,13.10
2023-03-30T13:06:49.083Z,13.30
2023-03-30T13:09:15.915Z,13.30
2023-03-30T13:11:53.397Z,13.40
2023-03-30T13:14:35.280Z,13.40
2023-03-30T13:17:02.214Z,13.40
2023-03-30T13:19:32.358Z,13.40
2023-03-30T13:22:11.679Z,13.50
2023-03-30T13:25:20.758Z,13.40
2023-03-30T13:27:52.525Z,13.60
2023-03-30T13:30:20.330Z,13.80
2023-03-30T13:33:27.432Z,13.70
2023-03-30T13:36:59.134Z,13.50
2023-03-30T14:24:27.915Z,11.60
2023-03-30T14:27:16.998Z,11.30
2023-03-30T14:29:50.882Z,11.00
2023-03-30T14:32:25.146Z,10.80
2023-03-30T14:34:54.514Z,10.70
2023-03-30T14:37:31.965Z,10.50
2023-03-30T14:39:58.994Z,10.30
2023-03-30T14:42:34.149Z,10.20
2023-03-30T14:45:01.496Z,10.10
2023-03-30T14:47:29.763Z,10.10
2023-03-30T14:50:03.140Z,10.20
2023-03-30T14:52:43.044Z,10.30
2023-03-30T14:55:20.354Z,10.50
2023-03-30T14:57:48.792Z,10.70
2023-03-30T15:00:22.837Z,10.90
2023-03-30T15:03:01.821Z,11.10
2023-03-30T15:05:42.739Z,11.20
2023-03-30T15:08:25.117Z,11.50
2023-03-30T15:11:00.687Z,11.40
2023-03-30T15:13:47.559Z,11.50
2023-03-30T15:16:29.204Z,11.50
2023-03-30T15:19:11.776Z,11.50
2023-03-30T15:21:40.476Z,11.50
2023-03-30T15:24:16.775Z,11.50
2023-03-30T15:26:50.061Z,11.60
2023-03-30T15:29:19.582Z,11.60
2023-03-30T15:31:46.741Z,11.70
2023-03-30T15:34:18.033Z,11.70
2023-03-30T15:36:52.612Z,11.70
2023-03-30T15:39:36.570Z,11.60
2023-03-30T15:42:07.626Z,11.70
2023-03-30T15:44:41.280Z,11.80
2023-03-30T15:47:18.992Z,11.80
2023-03-30T15:49:51.297Z,11.80
2023-03-30T15:52:30.523Z,11.80
2023-03-30T15:55:17.574Z,11.80
2023-03-30T15:57:50.960Z,11.80
2023-03-30T16:00:22.761Z,11.80
2023-03-30T16:02:58.325Z,11.90
2023-03-30T16:05:32.620Z,11.80
2023-03-30T16:08:00.523Z,11.90
2023-03-30T16:10:33.475Z,11.80
2023-03-30T16:13:01.384Z,11.80
2023-03-30T16:15:32.971Z,11.70
2023-03-30T16:18:00.036Z,11.80
2023-03-30T16:20:32.118Z,11.80
2023-03-30T16:22:59.554Z,11.80
2023-03-30T16:25:37.778Z,11.90
2023-03-30T16:28:17.308Z,11.90
2023-03-30T16:30:48.077Z,11.90
2023-03-30T16:33:15.008Z,11.80
2023-03-30T16:35:42.072Z,11.70
2023-03-30T16:38:14.836Z,11.60
2023-03-30T16:40:47.306Z,11.60
2023-03-30T16:43:14.241Z,11.60
2023-03-30T16:45:41.308Z,11.60
2023-03-30T16:48:10.735Z,11.50
2023-03-30T16:50:52.161Z,11.40
2023-03-30T16:53:19.146Z,11.40
2023-03-30T16:55:46.758Z,11.40
2023-03-30T16:58:16.271Z,11.50
2023-03-30T17:00:56.294Z,11.50
2023-03-30T17:03:23.242Z,11.60
2023-03-30T17:05:51.307Z,11.60
2023-03-30T17:08:29.648Z,11.60
2023-03-30T17:11:03.654Z,11.50
2023-03-30T17:13:32.062Z,11.40
2023-03-30T17:16:01.272Z,11.40
2023-03-30T17:18:29.413Z,11.40
2023-03-30T17:20:59.259Z,11.40
2023-03-30T17:23:30.360Z,11.40
2023-03-30T17:26:00.508Z,11.30
2023-03-30T17:28:31.668Z,11.20
2023-03-30T17:31:05.735Z,11.20
2023-03-30T17:33:34.880Z,11.20
2023-03-30T17:36:16.719Z,11.20
2023-03-30T17:38:44.025Z,11.20
2023-03-30T17:41:13.679Z,11.20
2023-03-30T17:43:42.183Z,11.20
2023-03-30T17:46:13.215Z,11.20
2023-03-30T17:48:41.152Z,11.20
2023-03-30T17:51:08.330Z,11.20
2023-03-30T17:53:40.287Z,11.20
2023-03-30T17:56:07.544Z,11.20
2023-03-30T17:58:36.637Z,11.10
2023-03-30T18:01:08.280Z,11.10
2023-03-30T18:03:38.303Z,11.00
2023-03-30T18:06:05.911Z,11.00
2023-03-30T18:08:33.052Z,11.00
2023-03-30T18:11:01.570Z,11.00
2023-03-30T18:13:29.776Z,11.00
2023-03-30T18:15:59.329Z,11.00
2023-03-30T18:18:29.955Z,10.90
2023-03-30T18:21:03.103Z,11.10
2023-03-30T18:23:33.570Z,10.90
2023-03-30T18:26:01.829Z,10.90
2023-03-30T18:28:31.375Z,11.00
2023-03-30T18:31:00.754Z,11.00
2023-03-30T18:33:28.365Z,11.00
2023-03-30T18:35:59.664Z,11.00
2023-03-30T18:38:29.420Z,11.00
2023-03-30T18:40:58.264Z,11.10
2023-03-30T18:43:28.681Z,11.10
2023-03-30T18:46:00.783Z,11.10
2023-03-30T18:48:29.054Z,11.10
2023-03-30T18:50:56.876Z,11.10
2023-03-30T18:53:26.717Z,11.10
2023-03-30T18:55:58.056Z,11.00
2023-03-30T18:58:33.560Z,11.20
2023-03-30T19:01:01.575Z,11.20
2023-03-30T19:03:30.111Z,11.20
2023-03-30T19:05:57.396Z,11.20
2023-03-30T19:08:26.597Z,11.20
2023-03-30T19:10:57.168Z,11.20
2023-03-30T19:13:26.505Z,11.20
2023-03-30T19:15:54.567Z,11.20
2023-03-30T19:18:22.061Z,11.20
2023-03-30T19:20:50.983Z,11.10
2023-03-30T19:23:19.202Z,11.10
2023-03-30T19:25:46.271Z,11.00
2023-03-30T19:28:15.561Z,11.00
2023-03-30T19:30:43.572Z,10.90
2023-03-30T19:33:16.818Z,10.90
2023-03-30T19:35:45.786Z,10.90
2023-03-30T19:38:14.099Z,10.90
2023-03-30T19:40:42.273Z,10.80
2023-03-30T19:43:09.751Z,10.90
2023-03-30T19:45:37.150Z,10.90
2023-03-30T19:48:04.572Z,11.00
2023-03-30T19:50:31.738Z,10.80
2023-03-30T19:52:59.669Z,10.70
2023-03-30T19:55:27.189Z,10.50
2023-03-30T19:57:54.686Z,10.40
2023-03-30T20:00:21.922Z,10.30
2023-03-30T20:02:52.714Z,10.20
2023-03-30T20:05:22.518Z,10.00
2023-03-30T20:07:50.482Z,9.90
2023-03-30T20:10:25.610Z,9.80
2023-03-30T20:12:53.401Z,9.70
2023-03-30T20:15:23.860Z,9.80
2023-03-30T20:17:56.367Z,9.60
2023-03-30T20:20:25.538Z,9.50
2023-03-30T20:22:56.366Z,9.50
2023-03-30T20:25:24.724Z,9.40
2023-03-30T20:27:52.454Z,9.50
2023-03-30T20:30:19.731Z,9.50
2023-03-30T20:32:59.569Z,9.50
2023-03-30T20:35:32.060Z,9.60
2023-03-30T20:37:58.973Z,9.70
2023-03-30T20:40:27.356Z,9.80
2023-03-30T20:43:03.188Z,9.90
2023-03-30T20:45:31.054Z,9.90
2023-03-30T20:47:59.781Z,9.80
2023-03-30T20:50:27.272Z,9.80
2023-03-30T20:52:54.257Z,9.80
2023-03-30T20:55:21.440Z,9.70
2023-03-30T20:57:48.529Z,9.70
2023-03-30T21:00:16.255Z,9.70
2023-03-30T21:02:43.269Z,9.70
2023-03-30T21:05:10.499Z,9.70
2023-03-30T21:07:38.320Z,9.70
2023-03-30T21:10:06.516Z,9.70
2023-03-30T21:12:33.515Z,9.70
2023-03-30T21:15:00.819Z,9.80
2023-03-30T21:17:27.722Z,9.90
2023-03-30T21:19:54.729Z,9.80
2023-03-30T21:22:21.751Z,9.80
2023-03-30T21:24:48.750Z,9.90
2023-03-30T21:27:15.953Z,9.90
2023-03-30T21:29:42.964Z,9.90
2023-03-30T21:32:09.949Z,9.90
2023-03-30T21:34:37.006Z,9.90
2023-03-30T21:37:04.112Z,9.90
2023-03-30T21:39:31.174Z,9.90
2023-03-30T21:41:58.080Z,9.80
2023-03-30T21:44:25.633Z,9.80
2023-03-30T21:46:52.732Z,9.80
2023-03-30T21:49:19.845Z,9.80
2023-03-30T21:51:46.967Z,9.80
2023-03-30T21:54:14.228Z,9.80
2023-03-30T21:56:41.366Z,9.70
2023-03-30T21:59:08.405Z,9.60
2023-03-30T22:01:35.637Z,9.50
2023-03-30T22:04:05.582Z,9.40
2023-03-30T22:06:33.308Z,9.30
2023-03-30T22:09:00.446Z,9.20
2023-03-30T22:11:27.798Z,9.10
2023-03-30T22:13:55.652Z,9.00
2023-03-30T22:16:31.473Z,8.90
2023-03-30T22:18:58.984Z,8.90
2023-03-30T22:21:34.719Z,8.80
2023-03-30T22:24:07.531Z,8.70
2023-03-30T22:26:36.332Z,8.70
2023-03-30T22:29:04.771Z,8.70
2023-03-30T22:31:31.931Z,8.80
2023-03-30T22:33:59.311Z,8.90
2023-03-30T22:36:30.860Z,8.90
2023-03-30T22:38:59.601Z,8.90
2023-03-30T22:41:27.093Z,9.00
2023-03-30T22:43:57.364Z,9.10
2023-03-30T22:46:26.477Z,9.10
2023-03-30T22:48:55.748Z,9.10
2023-03-30T22:51:26.579Z,9.10
2023-03-30T22:53:58.656Z,9.10
2023-03-30T22:56:27.791Z,9.10
2023-03-30T22:58:55.425Z,9.10
2023-03-30T23:01:23.547Z,9.20
2023-03-30T23:03:50.661Z,9.10
2023-03-30T23:06:19.089Z,9.00
2023-03-30T23:08:48.606Z,9.00
2023-03-30T23:11:16.110Z,8.90
2023-03-30T23:13:43.104Z,8.90
2023-03-30T23:16:13.397Z,8.90
2023-03-30T23:18:40.369Z,8.80
2023-03-30T23:21:11.081Z,8.70
2023-03-30T23:23:38.636Z,8.60
2023-03-30T23:26:09.984Z,8.50
2023-03-30T23:28:41.332Z,8.50
2023-03-30T23:31:17.919Z,8.50
2023-03-30T23:33:45.860Z,8.50
2023-03-30T23:36:13.955Z,8.40
2023-03-30T23:38:41.682Z,8.40
2023-03-30T23:41:09.467Z,8.30
2023-03-30T23:43:36.354Z,8.30
2023-03-30T23:46:03.744Z,8.30
2023-03-30T23:48:31.251Z,8.30
2023-03-30T23:50:58.579Z,8.40
2023-03-30T23:53:26.827Z,8.40
2023-03-30T23:55:54.734Z,8.30
2023-03-30T23:58:23.089Z,8.30
